sensor_id;sensor_type;location;lat;lon;timestamp;temperature;humidity
20070;DHT22;10195;50.868;4.382;2024-03-22T00:01:48;13.80;99.90
20070;DHT22;10195;50.868;4.382;2024-03-22T00:04:25;13.80;99.90
20070;DHT22;10195;50.868;4.382;2024-03-22T00:06:51;13.90;99.90
20070;DHT22;10195;50.868;4.382;2024-03-22T00:09:17;13.80;99.90
20070;DHT22;10195;50.868;4.382;2024-03-22T00:11:43;13.80;99.90
20070;DHT22;10195;50.868;4.382;2024-03-22T00:14:10;13.80;99.90
20070;DHT22;10195;50.868;4.382;2024-03-22T00:16:36;13.90;99.90
20070;DHT22;10195;50.868;4.382;2024-03-22T00:19:02;13.90;99.90
20070;DHT22;10195;50.868;4.382;2024-03-22T00:21:28;13.80;99.90
20070;DHT22;10195;50.868;4.382;2024-03-22T00:23:55;13.70;99.90
20070;DHT22;10195;50.868;4.382;2024-03-22T00:26:21;13.70;99.90
20070;DHT22;10195;50.868;4.382;2024-03-22T00:28:47;13.70;99.90
20070;DHT22;10195;50.868;4.382;2024-03-22T00:31:12;13.80;99.90
20070;DHT22;10195;50.868;4.382;2024-03-22T00:33:38;13.70;99.90
20070;DHT22;10195;50.868;4.382;2024-03-22T00:36:04;13.70;99.90
20070;DHT22;10195;50.868;4.382;2024-03-22T00:38:30;13.70;99.90
20070;DHT22;10195;50.868;4.382;2024-03-22T00:40:55;13.80;99.90
20070;DHT22;10195;50.868;4.382;2024-03-22T00:43:21;13.70;99.90
20070;DHT22;10195;50.868;4.382;2024-03-22T00:45:47;13.70;99.90
20070;DHT22;10195;50.868;4.382;2024-03-22T00:48:13;13.80;99.90
20070;DHT22;10195;50.868;4.382;2024-03-22T00:50:39;13.80;99.90
20070;DHT22;10195;50.868;4.382;2024-03-22T00:53:04;13.80;99.90
20070;DHT22;10195;50.868;4.382;2024-03-22T00:55:31;13.60;99.90
20070;DHT22;10195;50.868;4.382;2024-03-22T00:57:57;13.60;99.90
20070;DHT22;10195;50.868;4.382;2024-03-22T01:00:23;13.60;99.90
20070;DHT22;10195;50.868;4.382;2024-03-22T01:02:50;13.50;99.90
20070;DHT22;10195;50.868;4.382;2024-03-22T01:05:16;13.50;99.90
20070;DHT22;10195;50.868;4.382;2024-03-22T01:07:41;13.50;99.90
20070;DHT22;10195;50.868;4.382;2024-03-22T01:10:07;13.40;99.90
20070;DHT22;10195;50.868;4.382;2024-03-22T01:12:33;13.20;99.90
20070;DHT22;10195;50.868;4.382;2024-03-22T01:14:58;13.20;99.90
20070;DHT22;10195;50.868;4.382;2024-03-22T01:17:24;13.20;99.90
20070;DHT22;10195;50.868;4.382;2024-03-22T01:19:50;13.20;99.90
20070;DHT22;10195;50.868;4.382;2024-03-22T01:22:17;13.20;99.90
20070;DHT22;10195;50.868;4.382;2024-03-22T01:24:43;13.20;99.90
20070;DHT22;10195;50.868;4.382;2024-03-22T01:27:09;13.20;99.90
20070;DHT22;10195;50.868;4.382;2024-03-22T01:29:34;13.20;99.90
20070;DHT22;10195;50.868;4.382;2024-03-22T01:32:01;13.00;99.90
20070;DHT22;10195;50.868;4.382;2024-03-22T01:34:27;13.10;99.90
20070;DHT22;10195;50.868;4.382;2024-03-22T01:36:52;13.00;99.90
20070;DHT22;10195;50.868;4.382;2024-03-22T01:39:21;12.90;99.90
20070;DHT22;10195;50.868;4.382;2024-03-22T01:41:48;12.90;99.90
20070;DHT22;10195;50.868;4.382;2024-03-22T01:44:13;12.90;99.90
20070;DHT22;10195;50.868;4.382;2024-03-22T01:46:40;12.90;99.90
20070;DHT22;10195;50.868;4.382;2024-03-22T01:49:09;12.90;99.90
20070;DHT22;10195;50.868;4.382;2024-03-22T01:51:34;12.90;99.90
20070;DHT22;10195;50.868;4.382;2024-03-22T01:54:02;12.90;99.90
20070;DHT22;10195;50.868;4.382;2024-03-22T01:56:28;12.80;99.90
20070;DHT22;10195;50.868;4.382;2024-03-22T01:58:55;12.90;99.90
20070;DHT22;10195;50.868;4.382;2024-03-22T02:01:21;12.80;99.90
20070;DHT22;10195;50.868;4.382;2024-03-22T02:03:47;12.80;99.90
20070;DHT22;10195;50.868;4.382;2024-03-22T02:06:13;12.70;99.90
20070;DHT22;10195;50.868;4.382;2024-03-22T02:08:40;12.60;99.90
20070;DHT22;10195;50.868;4.382;2024-03-22T02:11:08;12.60;99.90
20070;DHT22;10195;50.868;4.382;2024-03-22T02:13:34;12.60;99.90
20070;DHT22;10195;50.868;4.382;2024-03-22T02:16:03;12.60;99.90
20070;DHT22;10195;50.868;4.382;2024-03-22T02:18:28;12.60;99.90
20070;DHT22;10195;50.868;4.382;2024-03-22T02:20:54;12.60;99.90
20070;DHT22;10195;50.868;4.382;2024-03-22T02:23:37;12.60;99.90
20070;DHT22;10195;50.868;4.382;2024-03-22T02:26:03;12.50;99.90
20070;DHT22;10195;50.868;4.382;2024-03-22T02:28:30;12.50;99.90
20070;DHT22;10195;50.868;4.382;2024-03-22T02:30:57;12.60;99.90
20070;DHT22;10195;50.868;4.382;2024-03-22T02:33:23;12.60;99.90
20070;DHT22;10195;50.868;4.382;2024-03-22T02:35:49;12.60;99.90
20070;DHT22;10195;50.868;4.382;2024-03-22T02:38:16;12.60;99.90
20070;DHT22;10195;50.868;4.382;2024-03-22T02:40:43;12.60;99.90
20070;DHT22;10195;50.868;4.382;2024-03-22T02:43:09;12.60;99.90
20070;DHT22;10195;50.868;4.382;2024-03-22T02:45:34;12.60;99.90
20070;DHT22;10195;50.868;4.382;2024-03-22T02:48:00;12.60;99.90
20070;DHT22;10195;50.868;4.382;2024-03-22T02:50:26;12.60;99.90
20070;DHT22;10195;50.868;4.382;2024-03-22T02:52:51;12.60;99.90
20070;DHT22;10195;50.868;4.382;2024-03-22T02:55:17;12.50;99.90
20070;DHT22;10195;50.868;4.382;2024-03-22T02:57:43;12.50;99.90
20070;DHT22;10195;50.868;4.382;2024-03-22T03:00:09;12.50;99.90
20070;DHT22;10195;50.868;4.382;2024-03-22T03:02:35;12.60;99.90
20070;DHT22;10195;50.868;4.382;2024-03-22T03:05:00;12.60;99.90
20070;DHT22;10195;50.868;4.382;2024-03-22T03:07:26;12.60;99.90
20070;DHT22;10195;50.868;4.382;2024-03-22T03:09:53;12.50;99.90
20070;DHT22;10195;50.868;4.382;2024-03-22T03:12:19;12.50;99.90
20070;DHT22;10195;50.868;4.382;2024-03-22T03:14:44;12.50;99.90
20070;DHT22;10195;50.868;4.382;2024-03-22T03:17:10;12.50;99.90
20070;DHT22;10195;50.868;4.382;2024-03-22T03:19:36;12.50;99.90
20070;DHT22;10195;50.868;4.382;2024-03-22T03:22:02;12.40;99.90
20070;DHT22;10195;50.868;4.382;2024-03-22T03:24:28;12.50;99.90
20070;DHT22;10195;50.868;4.382;2024-03-22T03:26:53;12.50;99.90
20070;DHT22;10195;50.868;4.382;2024-03-22T03:29:19;12.50;99.90
20070;DHT22;10195;50.868;4.382;2024-03-22T03:31:45;12.50;99.90
20070;DHT22;10195;50.868;4.382;2024-03-22T03:34:11;12.50;99.90
20070;DHT22;10195;50.868;4.382;2024-03-22T03:36:36;12.50;99.90
20070;DHT22;10195;50.868;4.382;2024-03-22T03:39:02;12.60;99.90
20070;DHT22;10195;50.868;4.382;2024-03-22T03:41:29;12.60;99.90
20070;DHT22;10195;50.868;4.382;2024-03-22T03:43:55;12.60;99.90
20070;DHT22;10195;50.868;4.382;2024-03-22T03:46:20;12.50;99.90
20070;DHT22;10195;50.868;4.382;2024-03-22T03:48:46;12.50;99.90
20070;DHT22;10195;50.868;4.382;2024-03-22T03:51:11;12.50;99.90
20070;DHT22;10195;50.868;4.382;2024-03-22T03:53:37;12.50;99.90
20070;DHT22;10195;50.868;4.382;2024-03-22T03:56:03;12.40;99.90
20070;DHT22;10195;50.868;4.382;2024-03-22T03:58:28;12.40;99.90
20070;DHT22;10195;50.868;4.382;2024-03-22T04:00:54;12.50;99.90
20070;DHT22;10195;50.868;4.382;2024-03-22T04:03:20;12.50;99.90
20070;DHT22;10195;50.868;4.382;2024-03-22T04:05:45;12.50;99.90
20070;DHT22;10195;50.868;4.382;2024-03-22T04:08:11;12.40;99.90
20070;DHT22;10195;50.868;4.382;2024-03-22T04:10:37;12.40;99.90
20070;DHT22;10195;50.868;4.382;2024-03-22T04:13:02;12.40;99.90
20070;DHT22;10195;50.868;4.382;2024-03-22T04:15:28;12.30;99.90
20070;DHT22;10195;50.868;4.382;2024-03-22T04:17:56;12.30;99.90
20070;DHT22;10195;50.868;4.382;2024-03-22T04:20:22;12.20;99.90
20070;DHT22;10195;50.868;4.382;2024-03-22T04:22:48;12.20;99.90
20070;DHT22;10195;50.868;4.382;2024-03-22T04:25:15;12.10;99.90
20070;DHT22;10195;50.868;4.382;2024-03-22T04:27:41;12.20;99.90
20070;DHT22;10195;50.868;4.382;2024-03-22T04:30:06;12.20;99.90
20070;DHT22;10195;50.868;4.382;2024-03-22T04:32:32;12.20;99.90
20070;DHT22;10195;50.868;4.382;2024-03-22T04:34:58;12.10;99.90
20070;DHT22;10195;50.868;4.382;2024-03-22T04:37:25;12.10;99.90
20070;DHT22;10195;50.868;4.382;2024-03-22T04:39:50;12.10;99.90
20070;DHT22;10195;50.868;4.382;2024-03-22T04:42:16;12.10;99.90
20070;DHT22;10195;50.868;4.382;2024-03-22T04:44:42;12.10;99.90
20070;DHT22;10195;50.868;4.382;2024-03-22T04:47:08;12.10;99.90
20070;DHT22;10195;50.868;4.382;2024-03-22T04:49:33;12.10;99.90
20070;DHT22;10195;50.868;4.382;2024-03-22T04:51:59;12.10;99.90
20070;DHT22;10195;50.868;4.382;2024-03-22T04:54:24;12.20;99.90
20070;DHT22;10195;50.868;4.382;2024-03-22T04:56:50;12.30;99.90
20070;DHT22;10195;50.868;4.382;2024-03-22T04:59:16;12.20;99.90
20070;DHT22;10195;50.868;4.382;2024-03-22T05:01:43;12.20;99.90
20070;DHT22;10195;50.868;4.382;2024-03-22T05:04:09;12.20;99.90
20070;DHT22;10195;50.868;4.382;2024-03-22T05:06:35;12.20;99.90
20070;DHT22;10195;50.868;4.382;2024-03-22T05:09:01;12.00;99.90
20070;DHT22;10195;50.868;4.382;2024-03-22T05:11:26;11.90;99.90
20070;DHT22;10195;50.868;4.382;2024-03-22T05:13:52;11.80;99.90
20070;DHT22;10195;50.868;4.382;2024-03-22T05:16:18;11.80;99.90
20070;DHT22;10195;50.868;4.382;2024-03-22T05:18:43;11.90;99.90
20070;DHT22;10195;50.868;4.382;2024-03-22T05:21:09;12.00;99.90
20070;DHT22;10195;50.868;4.382;2024-03-22T05:23:34;11.90;99.90
20070;DHT22;10195;50.868;4.382;2024-03-22T05:26:00;11.80;99.90
20070;DHT22;10195;50.868;4.382;2024-03-22T05:28:26;11.90;99.90
20070;DHT22;10195;50.868;4.382;2024-03-22T05:30:51;11.80;99.90
20070;DHT22;10195;50.868;4.382;2024-03-22T05:33:17;11.80;99.90
20070;DHT22;10195;50.868;4.382;2024-03-22T05:35:42;11.90;99.90
20070;DHT22;10195;50.868;4.382;2024-03-22T05:38:08;11.90;99.90
20070;DHT22;10195;50.868;4.382;2024-03-22T05:40:36;11.90;99.90
20070;DHT22;10195;50.868;4.382;2024-03-22T05:43:04;11.80;99.90
20070;DHT22;10195;50.868;4.382;2024-03-22T05:45:30;11.80;99.90
20070;DHT22;10195;50.868;4.382;2024-03-22T05:47:55;11.70;99.90
20070;DHT22;10195;50.868;4.382;2024-03-22T05:50:21;11.70;99.90
20070;DHT22;10195;50.868;4.382;2024-03-22T05:52:47;11.80;99.90
20070;DHT22;10195;50.868;4.382;2024-03-22T05:55:13;11.70;99.90
20070;DHT22;10195;50.868;4.382;2024-03-22T05:57:38;11.80;99.90
20070;DHT22;10195;50.868;4.382;2024-03-22T06:00:05;11.80;99.90
20070;DHT22;10195;50.868;4.382;2024-03-22T06:02:32;11.70;99.90
20070;DHT22;10195;50.868;4.382;2024-03-22T06:04:58;11.60;99.90
20070;DHT22;10195;50.868;4.382;2024-03-22T06:07:24;11.60;99.90
20070;DHT22;10195;50.868;4.382;2024-03-22T06:09:50;11.50;99.90
20070;DHT22;10195;50.868;4.382;2024-03-22T06:12:18;11.50;99.90
20070;DHT22;10195;50.868;4.382;2024-03-22T06:14:44;11.50;99.90
20070;DHT22;10195;50.868;4.382;2024-03-22T06:17:10;11.50;99.90
20070;DHT22;10195;50.868;4.382;2024-03-22T06:19:37;11.50;99.90
20070;DHT22;10195;50.868;4.382;2024-03-22T06:22:03;11.60;99.90
20070;DHT22;10195;50.868;4.382;2024-03-22T06:24:28;11.50;99.90
20070;DHT22;10195;50.868;4.382;2024-03-22T06:26:54;11.60;99.90
20070;DHT22;10195;50.868;4.382;2024-03-22T06:29:20;11.60;99.90
20070;DHT22;10195;50.868;4.382;2024-03-22T06:31:46;11.50;99.90
20070;DHT22;10195;50.868;4.382;2024-03-22T06:34:12;11.50;99.90
20070;DHT22;10195;50.868;4.382;2024-03-22T06:36:37;11.40;99.90
20070;DHT22;10195;50.868;4.382;2024-03-22T06:39:03;11.50;99.90
20070;DHT22;10195;50.868;4.382;2024-03-22T06:41:35;11.50;99.90
20070;DHT22;10195;50.868;4.382;2024-03-22T06:44:01;11.60;99.90
20070;DHT22;10195;50.868;4.382;2024-03-22T06:46:27;11.70;99.90
20070;DHT22;10195;50.868;4.382;2024-03-22T06:48:53;11.70;99.90
20070;DHT22;10195;50.868;4.382;2024-03-22T06:51:20;11.80;99.90
20070;DHT22;10195;50.868;4.382;2024-03-22T06:53:45;11.80;99.90
20070;DHT22;10195;50.868;4.382;2024-03-22T06:56:13;11.70;99.90
20070;DHT22;10195;50.868;4.382;2024-03-22T06:58:39;11.70;99.90
20070;DHT22;10195;50.868;4.382;2024-03-22T07:01:05;11.70;99.90
20070;DHT22;10195;50.868;4.382;2024-03-22T07:03:30;11.60;99.90
20070;DHT22;10195;50.868;4.382;2024-03-22T07:05:56;11.70;99.90
20070;DHT22;10195;50.868;4.382;2024-03-22T07:08:23;11.70;99.90
20070;DHT22;10195;50.868;4.382;2024-03-22T07:10:49;11.60;99.90
20070;DHT22;10195;50.868;4.382;2024-03-22T07:13:14;11.70;99.90
20070;DHT22;10195;50.868;4.382;2024-03-22T07:15:40;11.60;99.90
20070;DHT22;10195;50.868;4.382;2024-03-22T07:18:06;11.60;99.90
20070;DHT22;10195;50.868;4.382;2024-03-22T07:20:31;11.70;99.90
20070;DHT22;10195;50.868;4.382;2024-03-22T07:22:57;11.60;99.90
20070;DHT22;10195;50.868;4.382;2024-03-22T07:25:22;11.60;99.90
20070;DHT22;10195;50.868;4.382;2024-03-22T07:27:48;11.60;99.90
20070;DHT22;10195;50.868;4.382;2024-03-22T07:30:14;11.60;99.90
20070;DHT22;10195;50.868;4.382;2024-03-22T07:32:40;11.70;99.90
20070;DHT22;10195;50.868;4.382;2024-03-22T07:35:06;11.90;99.90
20070;DHT22;10195;50.868;4.382;2024-03-22T07:37:34;11.90;99.90
20070;DHT22;10195;50.868;4.382;2024-03-22T07:40:01;11.90;99.90
20070;DHT22;10195;50.868;4.382;2024-03-22T07:42:28;11.90;99.90
20070;DHT22;10195;50.868;4.382;2024-03-22T07:44:53;12.00;99.90
20070;DHT22;10195;50.868;4.382;2024-03-22T07:47:19;12.00;99.90
20070;DHT22;10195;50.868;4.382;2024-03-22T07:49:45;11.90;99.90
20070;DHT22;10195;50.868;4.382;2024-03-22T07:52:10;12.00;99.90
20070;DHT22;10195;50.868;4.382;2024-03-22T07:54:36;12.00;99.90
20070;DHT22;10195;50.868;4.382;2024-03-22T07:57:02;11.90;99.90
20070;DHT22;10195;50.868;4.382;2024-03-22T07:59:28;12.00;99.90
20070;DHT22;10195;50.868;4.382;2024-03-22T08:01:53;12.00;99.90
20070;DHT22;10195;50.868;4.382;2024-03-22T08:04:19;12.00;99.90
20070;DHT22;10195;50.868;4.382;2024-03-22T08:06:46;12.10;99.90
20070;DHT22;10195;50.868;4.382;2024-03-22T08:09:11;12.20;99.90
20070;DHT22;10195;50.868;4.382;2024-03-22T08:11:37;12.30;99.90
20070;DHT22;10195;50.868;4.382;2024-03-22T08:14:02;12.30;99.90
20070;DHT22;10195;50.868;4.382;2024-03-22T08:16:32;12.30;99.90
20070;DHT22;10195;50.868;4.382;2024-03-22T08:18:57;12.40;99.90
20070;DHT22;10195;50.868;4.382;2024-03-22T08:21:23;12.30;99.90
20070;DHT22;10195;50.868;4.382;2024-03-22T08:23:50;12.10;99.90
20070;DHT22;10195;50.868;4.382;2024-03-22T08:26:16;12.10;99.90
20070;DHT22;10195;50.868;4.382;2024-03-22T08:28:42;12.10;99.90
20070;DHT22;10195;50.868;4.382;2024-03-22T08:31:07;12.30;99.90
20070;DHT22;10195;50.868;4.382;2024-03-22T08:33:33;12.20;99.90
20070;DHT22;10195;50.868;4.382;2024-03-22T08:35:58;12.20;99.90
20070;DHT22;10195;50.868;4.382;2024-03-22T08:38:24;12.30;99.90
20070;DHT22;10195;50.868;4.382;2024-03-22T08:40:50;12.50;99.90
20070;DHT22;10195;50.868;4.382;2024-03-22T08:43:16;12.70;99.90
20070;DHT22;10195;50.868;4.382;2024-03-22T08:45:42;12.80;99.90
20070;DHT22;10195;50.868;4.382;2024-03-22T08:48:07;12.90;99.90
20070;DHT22;10195;50.868;4.382;2024-03-22T08:50:34;12.90;99.90
20070;DHT22;10195;50.868;4.382;2024-03-22T08:52:59;13.00;99.90
20070;DHT22;10195;50.868;4.382;2024-03-22T08:55:28;12.80;99.90
20070;DHT22;10195;50.868;4.382;2024-03-22T08:57:54;12.90;99.90
20070;DHT22;10195;50.868;4.382;2024-03-22T09:00:20;13.00;99.90
20070;DHT22;10195;50.868;4.382;2024-03-22T09:02:47;13.30;99.90
20070;DHT22;10195;50.868;4.382;2024-03-22T09:05:12;13.30;99.90
20070;DHT22;10195;50.868;4.382;2024-03-22T09:07:38;13.40;99.90
20070;DHT22;10195;50.868;4.382;2024-03-22T09:10:05;13.20;99.90
20070;DHT22;10195;50.868;4.382;2024-03-22T09:12:31;13.10;99.90
20070;DHT22;10195;50.868;4.382;2024-03-22T09:14:57;13.30;99.90
20070;DHT22;10195;50.868;4.382;2024-03-22T09:17:23;13.30;99.90
20070;DHT22;10195;50.868;4.382;2024-03-22T09:19:48;13.20;99.90
20070;DHT22;10195;50.868;4.382;2024-03-22T09:22:14;13.00;99.90
20070;DHT22;10195;50.868;4.382;2024-03-22T09:24:40;13.10;99.90
20070;DHT22;10195;50.868;4.382;2024-03-22T09:27:06;13.10;99.90
20070;DHT22;10195;50.868;4.382;2024-03-22T09:29:36;13.20;99.90
20070;DHT22;10195;50.868;4.382;2024-03-22T09:32:02;13.10;99.90
20070;DHT22;10195;50.868;4.382;2024-03-22T09:34:28;13.40;99.90
20070;DHT22;10195;50.868;4.382;2024-03-22T09:36:55;13.60;99.90
20070;DHT22;10195;50.868;4.382;2024-03-22T09:39:22;13.70;99.90
20070;DHT22;10195;50.868;4.382;2024-03-22T09:41:47;13.50;99.90
20070;DHT22;10195;50.868;4.382;2024-03-22T09:44:18;13.60;99.90
20070;DHT22;10195;50.868;4.382;2024-03-22T09:46:46;13.70;99.90
20070;DHT22;10195;50.868;4.382;2024-03-22T09:49:12;13.50;99.90
20070;DHT22;10195;50.868;4.382;2024-03-22T09:51:39;13.40;99.90
20070;DHT22;10195;50.868;4.382;2024-03-22T09:54:05;13.40;99.90
20070;DHT22;10195;50.868;4.382;2024-03-22T09:56:31;13.40;99.90
20070;DHT22;10195;50.868;4.382;2024-03-22T09:58:58;13.50;99.90
20070;DHT22;10195;50.868;4.382;2024-03-22T10:01:27;13.50;99.90
20070;DHT22;10195;50.868;4.382;2024-03-22T10:03:52;13.50;99.90
20070;DHT22;10195;50.868;4.382;2024-03-22T10:06:19;13.30;99.90
20070;DHT22;10195;50.868;4.382;2024-03-22T10:08:45;13.20;99.90
20070;DHT22;10195;50.868;4.382;2024-03-22T10:11:11;13.10;99.90
20070;DHT22;10195;50.868;4.382;2024-03-22T10:13:37;13.20;99.90
20070;DHT22;10195;50.868;4.382;2024-03-22T10:16:02;13.30;99.90
20070;DHT22;10195;50.868;4.382;2024-03-22T10:18:28;13.40;99.90
20070;DHT22;10195;50.868;4.382;2024-03-22T10:21:17;13.60;99.90
20070;DHT22;10195;50.868;4.382;2024-03-22T10:23:46;13.70;99.90
20070;DHT22;10195;50.868;4.382;2024-03-22T10:26:14;13.70;99.90
20070;DHT22;10195;50.868;4.382;2024-03-22T10:28:46;13.60;99.90
20070;DHT22;10195;50.868;4.382;2024-03-22T10:31:13;13.50;99.90
20070;DHT22;10195;50.868;4.382;2024-03-22T10:33:41;13.40;99.90
20070;DHT22;10195;50.868;4.382;2024-03-22T10:36:07;13.40;99.90
20070;DHT22;10195;50.868;4.382;2024-03-22T10:38:35;13.40;99.90
20070;DHT22;10195;50.868;4.382;2024-03-22T10:41:01;13.50;99.90
20070;DHT22;10195;50.868;4.382;2024-03-22T10:43:28;13.50;99.90
20070;DHT22;10195;50.868;4.382;2024-03-22T10:45:56;13.60;99.90
20070;DHT22;10195;50.868;4.382;2024-03-22T10:48:29;14.00;99.90
20070;DHT22;10195;50.868;4.382;2024-03-22T10:50:55;14.00;99.90
20070;DHT22;10195;50.868;4.382;2024-03-22T10:53:25;13.90;99.90
20070;DHT22;10195;50.868;4.382;2024-03-22T10:55:54;14.00;99.90
20070;DHT22;10195;50.868;4.382;2024-03-22T10:58:21;14.10;99.90
20070;DHT22;10195;50.868;4.382;2024-03-22T11:00:54;13.90;99.90
20070;DHT22;10195;50.868;4.382;2024-03-22T11:03:21;13.90;99.90
20070;DHT22;10195;50.868;4.382;2024-03-22T11:05:50;14.00;99.90
20070;DHT22;10195;50.868;4.382;2024-03-22T11:08:27;14.00;99.90
20070;DHT22;10195;50.868;4.382;2024-03-22T11:10:53;14.10;99.90
20070;DHT22;10195;50.868;4.382;2024-03-22T11:13:19;14.10;99.90
20070;DHT22;10195;50.868;4.382;2024-03-22T11:15:50;14.00;99.90
20070;DHT22;10195;50.868;4.382;2024-03-22T11:18:19;13.90;99.90
20070;DHT22;10195;50.868;4.382;2024-03-22T11:20:45;13.90;99.90
20070;DHT22;10195;50.868;4.382;2024-03-22T11:23:11;13.80;99.90
20070;DHT22;10195;50.868;4.382;2024-03-22T11:25:36;13.70;99.90
20070;DHT22;10195;50.868;4.382;2024-03-22T11:28:02;13.70;99.90
20070;DHT22;10195;50.868;4.382;2024-03-22T11:30:29;13.60;99.90
20070;DHT22;10195;50.868;4.382;2024-03-22T11:32:55;13.80;99.90
20070;DHT22;10195;50.868;4.382;2024-03-22T11:35:21;13.80;99.90
20070;DHT22;10195;50.868;4.382;2024-03-22T11:37:47;13.70;99.90
20070;DHT22;10195;50.868;4.382;2024-03-22T11:40:14;13.70;99.90
20070;DHT22;10195;50.868;4.382;2024-03-22T11:42:41;13.70;99.90
20070;DHT22;10195;50.868;4.382;2024-03-22T11:45:11;13.70;99.90
20070;DHT22;10195;50.868;4.382;2024-03-22T11:47:38;13.60;99.90
20070;DHT22;10195;50.868;4.382;2024-03-22T11:50:04;13.60;99.90
20070;DHT22;10195;50.868;4.382;2024-03-22T11:52:30;13.70;99.90
20070;DHT22;10195;50.868;4.382;2024-03-22T11:54:56;13.80;99.90
20070;DHT22;10195;50.868;4.382;2024-03-22T11:57:23;13.90;99.90
20070;DHT22;10195;50.868;4.382;2024-03-22T11:59:48;13.90;99.90
20070;DHT22;10195;50.868;4.382;2024-03-22T12:02:14;14.10;99.90
20070;DHT22;10195;50.868;4.382;2024-03-22T12:04:41;14.20;99.90
20070;DHT22;10195;50.868;4.382;2024-03-22T12:07:13;14.10;99.90
20070;DHT22;10195;50.868;4.382;2024-03-22T12:09:39;14.10;99.90
20070;DHT22;10195;50.868;4.382;2024-03-22T12:12:08;14.10;99.90
20070;DHT22;10195;50.868;4.382;2024-03-22T12:14:34;14.00;99.90
20070;DHT22;10195;50.868;4.382;2024-03-22T12:17:01;13.80;99.90
20070;DHT22;10195;50.868;4.382;2024-03-22T12:19:26;13.70;99.90
20070;DHT22;10195;50.868;4.382;2024-03-22T12:21:52;13.50;99.90
20070;DHT22;10195;50.868;4.382;2024-03-22T12:24:18;13.50;99.90
20070;DHT22;10195;50.868;4.382;2024-03-22T12:26:44;13.60;99.90
20070;DHT22;10195;50.868;4.382;2024-03-22T12:29:09;13.50;99.90
20070;DHT22;10195;50.868;4.382;2024-03-22T12:31:37;13.40;99.90
20070;DHT22;10195;50.868;4.382;2024-03-22T12:34:03;13.30;99.90
20070;DHT22;10195;50.868;4.382;2024-03-22T12:36:29;13.30;99.90
20070;DHT22;10195;50.868;4.382;2024-03-22T12:38:54;13.40;99.90
20070;DHT22;10195;50.868;4.382;2024-03-22T12:41:20;13.30;99.90
20070;DHT22;10195;50.868;4.382;2024-03-22T12:43:46;13.20;99.90
20070;DHT22;10195;50.868;4.382;2024-03-22T12:46:11;13.20;99.90
20070;DHT22;10195;50.868;4.382;2024-03-22T12:48:37;13.30;99.90
20070;DHT22;10195;50.868;4.382;2024-03-22T12:51:03;13.30;99.90
20070;DHT22;10195;50.868;4.382;2024-03-22T12:53:28;13.20;99.90
20070;DHT22;10195;50.868;4.382;2024-03-22T12:55:54;13.10;99.90
20070;DHT22;10195;50.868;4.382;2024-03-22T12:58:19;13.10;99.90
20070;DHT22;10195;50.868;4.382;2024-03-22T13:00:45;13.10;99.90
20070;DHT22;10195;50.868;4.382;2024-03-22T13:03:11;13.20;99.90
20070;DHT22;10195;50.868;4.382;2024-03-22T13:05:38;13.30;99.90
20070;DHT22;10195;50.868;4.382;2024-03-22T13:08:05;13.40;99.90
20070;DHT22;10195;50.868;4.382;2024-03-22T13:10:30;13.40;99.90
20070;DHT22;10195;50.868;4.382;2024-03-22T13:12:56;13.40;99.90
20070;DHT22;10195;50.868;4.382;2024-03-22T13:15:23;13.30;99.90
20070;DHT22;10195;50.868;4.382;2024-03-22T13:17:48;13.20;99.90
20070;DHT22;10195;50.868;4.382;2024-03-22T13:20:14;13.20;99.90
20070;DHT22;10195;50.868;4.382;2024-03-22T13:22:41;13.30;99.90
20070;DHT22;10195;50.868;4.382;2024-03-22T13:25:06;13.40;99.90
20070;DHT22;10195;50.868;4.382;2024-03-22T13:27:34;13.40;99.90
20070;DHT22;10195;50.868;4.382;2024-03-22T13:30:01;13.40;99.90
20070;DHT22;10195;50.868;4.382;2024-03-22T13:32:27;13.30;99.90
20070;DHT22;10195;50.868;4.382;2024-03-22T13:34:53;13.30;99.90
20070;DHT22;10195;50.868;4.382;2024-03-22T13:37:18;13.30;99.90
20070;DHT22;10195;50.868;4.382;2024-03-22T13:39:48;13.30;99.90
20070;DHT22;10195;50.868;4.382;2024-03-22T13:42:14;13.30;99.90
20070;DHT22;10195;50.868;4.382;2024-03-22T13:44:41;13.20;99.90
20070;DHT22;10195;50.868;4.382;2024-03-22T13:47:06;13.00;99.90
20070;DHT22;10195;50.868;4.382;2024-03-22T13:49:32;13.00;99.90
20070;DHT22;10195;50.868;4.382;2024-03-22T13:51:58;13.00;99.90
20070;DHT22;10195;50.868;4.382;2024-03-22T13:54:24;13.00;99.90
20070;DHT22;10195;50.868;4.382;2024-03-22T13:56:50;13.00;99.90
20070;DHT22;10195;50.868;4.382;2024-03-22T13:59:16;13.00;99.90
20070;DHT22;10195;50.868;4.382;2024-03-22T14:01:42;13.10;99.90
20070;DHT22;10195;50.868;4.382;2024-03-22T14:04:11;13.20;99.90
20070;DHT22;10195;50.868;4.382;2024-03-22T14:06:37;13.20;99.90
20070;DHT22;10195;50.868;4.382;2024-03-22T14:09:03;13.30;99.90
20070;DHT22;10195;50.868;4.382;2024-03-22T14:11:31;13.30;99.90
20070;DHT22;10195;50.868;4.382;2024-03-22T14:14:00;13.30;99.90
20070;DHT22;10195;50.868;4.382;2024-03-22T14:16:25;13.20;99.90
20070;DHT22;10195;50.868;4.382;2024-03-22T14:18:51;13.10;99.90
20070;DHT22;10195;50.868;4.382;2024-03-22T14:21:19;13.10;99.90
20070;DHT22;10195;50.868;4.382;2024-03-22T14:23:49;13.00;99.90
20070;DHT22;10195;50.868;4.382;2024-03-22T14:26:18;12.90;99.90
20070;DHT22;10195;50.868;4.382;2024-03-22T14:28:44;12.90;99.90
20070;DHT22;10195;50.868;4.382;2024-03-22T14:31:11;12.70;99.90
20070;DHT22;10195;50.868;4.382;2024-03-22T14:33:40;12.80;99.90
20070;DHT22;10195;50.868;4.382;2024-03-22T14:36:06;12.70;99.90
20070;DHT22;10195;50.868;4.382;2024-03-22T14:38:33;12.80;99.90
20070;DHT22;10195;50.868;4.382;2024-03-22T14:40:59;12.90;99.90
20070;DHT22;10195;50.868;4.382;2024-03-22T14:43:25;12.80;99.90
20070;DHT22;10195;50.868;4.382;2024-03-22T14:45:54;12.90;99.90
20070;DHT22;10195;50.868;4.382;2024-03-22T14:48:23;12.90;99.90
20070;DHT22;10195;50.868;4.382;2024-03-22T14:50:50;12.90;99.90
20070;DHT22;10195;50.868;4.382;2024-03-22T14:53:22;12.80;99.90
20070;DHT22;10195;50.868;4.382;2024-03-22T14:55:54;12.80;99.90
20070;DHT22;10195;50.868;4.382;2024-03-22T14:58:24;12.80;99.90
20070;DHT22;10195;50.868;4.382;2024-03-22T15:01:00;12.80;99.90
20070;DHT22;10195;50.868;4.382;2024-03-22T15:03:26;12.70;99.90
20070;DHT22;10195;50.868;4.382;2024-03-22T15:05:56;12.70;99.90
20070;DHT22;10195;50.868;4.382;2024-03-22T15:08:22;12.60;99.90
20070;DHT22;10195;50.868;4.382;2024-03-22T15:10:48;12.60;99.90
20070;DHT22;10195;50.868;4.382;2024-03-22T15:13:15;12.70;99.90
20070;DHT22;10195;50.868;4.382;2024-03-22T15:15:41;12.50;99.90
20070;DHT22;10195;50.868;4.382;2024-03-22T15:18:08;12.50;99.90
20070;DHT22;10195;50.868;4.382;2024-03-22T15:20:34;12.60;99.90
20070;DHT22;10195;50.868;4.382;2024-03-22T15:23:00;12.60;99.90
20070;DHT22;10195;50.868;4.382;2024-03-22T15:25:26;12.50;99.90